createdAt,value
2018-09-07T00:00:50.492Z,0
2018-09-07T00:01:52.613Z,0
2018-09-07T00:02:54.707Z,0
2018-09-07T00:03:56.806Z,0
2018-09-07T00:04:58.899Z,0
2018-09-07T00:06:01.406Z,0
2018-09-07T00:07:03.790Z,0
2018-09-07T00:08:05.893Z,0
2018-09-07T00:09:08.008Z,0
2018-09-07T00:10:10.091Z,0
2018-09-07T00:11:12.209Z,0
2018-09-07T00:12:14.308Z,0
2018-09-07T00:13:16.727Z,0
2018-09-07T00:14:18.816Z,0
2018-09-07T00:15:21.213Z,0
2018-09-07T00:16:23.313Z,0
2018-09-07T00:17:25.424Z,0
2018-09-07T00:18:27.509Z,0
2018-09-07T00:19:29.618Z,0
2018-09-07T00:20:31.725Z,0
2018-09-07T00:21:34.149Z,0
2018-09-07T00:22:36.643Z,0
2018-09-07T00:23:39.047Z,0
2018-09-07T00:24:41.440Z,0
2018-09-07T00:25:43.548Z,0
2018-09-07T00:26:45.656Z,0
2018-09-07T00:27:47.749Z,0
2018-09-07T00:28:49.853Z,0
2018-09-07T00:29:51.967Z,0
2018-09-07T00:30:54.054Z,0
2018-09-07T00:31:56.160Z,0
2018-09-07T00:32:58.266Z,0
2018-09-07T00:34:00.662Z,0
2018-09-07T00:35:03.080Z,0
2018-09-07T00:36:05.178Z,0
2018-09-07T00:37:07.284Z,0
2018-09-07T00:38:09.764Z,0
2018-09-07T00:39:11.876Z,0
2018-09-07T00:40:13.970Z,0
2018-09-07T00:41:16.071Z,0
2018-09-07T00:42:18.569Z,0
2018-09-07T00:43:20.982Z,0
2018-09-07T00:44:23.376Z,0
2018-09-07T00:45:25.472Z,0
2018-09-07T00:46:27.581Z,0
2018-09-07T00:47:29.667Z,0
2018-09-07T00:48:32.081Z,0
2018-09-07T00:49:34.570Z,0
2018-09-07T00:50:36.659Z,0
2018-09-07T00:51:38.774Z,0
2018-09-07T00:52:40.862Z,0
2018-09-07T00:53:42.960Z,0
2018-09-07T00:54:45.067Z,0
2018-09-07T00:55:47.170Z,0
2018-09-07T00:56:49.267Z,0
2018-09-07T00:57:51.679Z,0
2018-09-07T00:58:53.775Z,0
2018-09-07T00:59:55.876Z,0
2018-09-07T01:00:57.986Z,0
2018-09-07T01:02:00.090Z,0
2018-09-07T01:03:02.183Z,0
2018-09-07T01:04:04.295Z,0
2018-09-07T01:05:06.700Z,0
2018-09-07T01:06:08.800Z,0
2018-09-07T01:07:10.912Z,0
2018-09-07T01:08:13.294Z,0
2018-09-07T01:09:15.399Z,0
2018-09-07T01:10:17.503Z,0
2018-09-07T01:11:19.907Z,0
2018-09-07T01:12:21.990Z,0
2018-09-07T01:13:24.102Z,0
2018-09-07T01:14:26.208Z,0
2018-09-07T01:15:28.299Z,0
2018-09-07T01:16:30.415Z,0
2018-09-07T01:17:32.797Z,0
2018-09-07T01:18:34.898Z,0
2018-09-07T01:19:36.993Z,0
2018-09-07T01:20:39.107Z,0
2018-09-07T01:21:41.877Z,0
2018-09-07T01:22:44.370Z,0
2018-09-07T01:23:46.474Z,0
2018-09-07T01:24:48.560Z,0
2018-09-07T01:25:50.669Z,0
2018-09-07T01:26:52.767Z,0
2018-09-07T01:27:54.860Z,0
2018-09-07T01:28:56.954Z,0
2018-09-07T01:29:59.066Z,0
2018-09-07T01:31:01.163Z,0
2018-09-07T01:32:03.254Z,0
2018-09-07T01:33:05.360Z,0
2018-09-07T01:34:07.468Z,0
2018-09-07T01:35:09.564Z,0
2018-09-07T01:36:11.657Z,0
2018-09-07T01:37:13.777Z,0
2018-09-07T01:38:15.876Z,0
2018-09-07T01:39:17.972Z,0
2018-09-07T01:40:20.083Z,0
2018-09-07T01:41:22.171Z,0
2018-09-07T01:42:24.567Z,0
2018-09-07T01:43:26.677Z,0
2018-09-07T01:44:28.793Z,0
2018-09-07T01:45:30.885Z,0
2018-09-07T01:46:32.986Z,0
2018-09-07T01:47:35.088Z,0
2018-09-07T01:48:37.569Z,0
2018-09-07T01:49:39.684Z,0
2018-09-07T01:50:41.775Z,0
2018-09-07T01:51:43.879Z,0
2018-09-07T01:52:45.976Z,0
2018-09-07T01:53:48.093Z,0
2018-09-07T01:54:50.471Z,0
2018-09-07T01:55:52.572Z,0
2018-09-07T01:56:54.678Z,0
2018-09-07T01:57:56.764Z,0
2018-09-07T01:58:58.876Z,0
2018-09-07T02:00:00.981Z,0
2018-09-07T02:01:03.463Z,0
2018-09-07T02:02:05.574Z,0
2018-09-07T02:03:08.061Z,0
2018-09-07T02:04:10.157Z,0
2018-09-07T02:05:12.580Z,0
2018-09-07T02:06:14.971Z,0
2018-09-07T02:07:17.066Z,0
2018-09-07T02:08:19.172Z,0
2018-09-07T02:09:21.578Z,0
2018-09-07T02:10:24.374Z,0
2018-09-07T02:11:26.476Z,0
2018-09-07T02:12:28.959Z,0
2018-09-07T02:13:31.071Z,0
2018-09-07T02:14:33.156Z,0
2018-09-07T02:15:35.267Z,0
2018-09-07T02:16:37.366Z,0
2018-09-07T02:17:39.787Z,0
2018-09-07T02:18:41.876Z,0
2018-09-07T02:19:43.988Z,0
2018-09-07T02:20:46.375Z,0
2018-09-07T02:21:48.465Z,0
2018-09-07T02:22:50.580Z,0
2018-09-07T02:23:52.672Z,0
2018-09-07T02:24:54.776Z,0
2018-09-07T02:25:56.872Z,0
2018-09-07T02:26:58.990Z,0
2018-09-07T02:28:01.081Z,0
2018-09-07T02:29:03.186Z,0
2018-09-07T02:30:05.292Z,0
2018-09-07T02:31:07.678Z,0
2018-09-07T02:32:09.786Z,0
2018-09-07T02:33:11.889Z,0
2018-09-07T02:34:13.981Z,0
2018-09-07T02:35:16.477Z,0
2018-09-07T02:36:18.584Z,0
2018-09-07T02:37:20.971Z,0
2018-09-07T02:38:23.086Z,0
2018-09-07T02:39:25.187Z,0
2018-09-07T02:40:27.588Z,0
2018-09-07T02:41:30.380Z,0
2018-09-07T02:42:32.485Z,0
2018-09-07T02:43:34.572Z,0
2018-09-07T02:44:36.677Z,0
2018-09-07T02:45:38.779Z,0
2018-09-07T02:46:40.883Z,0
2018-09-07T02:47:42.974Z,0
2018-09-07T02:48:45.472Z,0
2018-09-07T02:49:47.864Z,0
2018-09-07T02:50:50.556Z,0
2018-09-07T02:51:52.925Z,0
2018-09-07T02:52:55.433Z,0
2018-09-07T02:53:57.537Z,0
2018-09-07T02:54:59.625Z,0
2018-09-07T02:56:02.124Z,0
2018-09-07T02:57:04.504Z,0
2018-09-07T02:58:06.605Z,0
2018-09-07T02:59:08.701Z,0
2018-09-07T03:00:11.416Z,0
2018-09-07T03:01:13.516Z,0
2018-09-07T03:02:15.612Z,0
2018-09-07T03:03:17.736Z,0
2018-09-07T03:04:19.824Z,0
2018-09-07T03:05:22.322Z,0
2018-09-07T03:06:24.420Z,0
2018-09-07T03:07:26.508Z,0
2018-09-07T03:08:28.607Z,0
2018-09-07T03:09:31.026Z,0
2018-09-07T03:10:33.522Z,0
2018-09-07T03:11:35.627Z,0
2018-09-07T03:12:38.302Z,0
2018-09-07T03:13:40.388Z,0
2018-09-07T03:14:42.490Z,0
2018-09-07T03:15:44.598Z,0
2018-09-07T03:16:46.975Z,0
2018-09-07T03:17:49.406Z,0
2018-09-07T03:18:52.086Z,0
2018-09-07T03:19:54.178Z,0
2018-09-07T03:20:56.291Z,0
2018-09-07T03:21:58.395Z,0
2018-09-07T03:23:01.099Z,0
2018-09-07T03:24:03.486Z,0
2018-09-07T03:25:05.608Z,0
2018-09-07T03:26:07.695Z,0
2018-09-07T03:27:09.805Z,0
2018-09-07T03:28:12.201Z,0
2018-09-07T03:29:14.291Z,0
2018-09-07T03:30:16.685Z,0
2018-09-07T03:31:19.196Z,0
2018-09-07T03:32:21.627Z,0
2018-09-07T03:33:23.710Z,0
2018-09-07T03:34:25.820Z,0
2018-09-07T03:35:28.312Z,0
2018-09-07T03:36:30.408Z,0
2018-09-07T03:37:32.815Z,0
2018-09-07T03:38:34.901Z,0
2018-09-07T03:39:37.007Z,0
2018-09-07T03:40:39.122Z,0
2018-09-07T03:41:41.510Z,0
2018-09-07T03:42:43.994Z,0
2018-09-07T03:43:46.097Z,0
2018-09-07T03:44:48.187Z,0
2018-09-07T03:45:50.683Z,0
2018-09-07T03:46:52.790Z,0
2018-09-07T03:47:54.883Z,0
2018-09-07T03:48:56.975Z,0
2018-09-07T03:49:59.094Z,0
2018-09-07T03:51:01.194Z,0
2018-09-07T03:52:03.580Z,0
2018-09-07T03:53:05.980Z,0
2018-09-07T03:54:08.067Z,0
2018-09-07T03:55:10.177Z,0
2018-09-07T03:56:12.293Z,0
2018-09-07T03:57:14.704Z,0
2018-09-07T03:58:17.182Z,0
2018-09-07T03:59:19.290Z,0
2018-09-07T04:00:21.390Z,0
2018-09-07T04:01:23.482Z,0
2018-09-07T04:02:25.579Z,0
2018-09-07T04:03:28.005Z,0
2018-09-07T04:04:30.396Z,0
2018-09-07T04:05:32.505Z,0
2018-09-07T04:06:34.896Z,0
2018-09-07T04:07:37.695Z,0
2018-09-07T04:08:40.082Z,4
2018-09-07T04:09:42.171Z,0
2018-09-07T04:10:44.284Z,0
2018-09-07T04:11:46.373Z,0
2018-09-07T04:12:48.787Z,4
2018-09-07T04:13:50.898Z,4
2018-09-07T04:14:52.996Z,4
2018-09-07T04:15:55.090Z,4
2018-09-07T04:16:57.484Z,4
2018-09-07T04:17:59.589Z,4
2018-09-07T04:19:01.687Z,8
2018-09-07T04:20:03.800Z,8
2018-09-07T04:21:06.598Z,8
2018-09-07T04:22:08.977Z,8
2018-09-07T04:23:11.386Z,12
2018-09-07T04:24:13.482Z,8
2018-09-07T04:25:15.873Z,12
2018-09-07T04:26:18.303Z,12
2018-09-07T04:27:20.394Z,16
2018-09-07T04:28:22.606Z,20
2018-09-07T04:29:24.603Z,16
2018-09-07T04:30:26.711Z,24
2018-09-07T04:31:28.803Z,24
2018-09-07T04:32:30.918Z,24
2018-09-07T04:33:33.308Z,28
2018-09-07T04:34:35.401Z,32
2018-09-07T04:35:37.905Z,36
2018-09-07T04:36:39.993Z,40
2018-09-07T04:37:42.095Z,44
2018-09-07T04:38:44.572Z,44
2018-09-07T04:39:46.692Z,52
2018-09-07T04:40:48.784Z,56
2018-09-07T04:41:50.898Z,60
2018-09-07T04:42:53.593Z,64
2018-09-07T04:43:55.702Z,72
2018-09-07T04:44:57.792Z,72
2018-09-07T04:45:59.899Z,76
2018-09-07T04:47:02.295Z,80
2018-09-07T04:48:04.406Z,84
2018-09-07T04:49:07.285Z,88
2018-09-07T04:50:09.391Z,88
2018-09-07T04:51:11.773Z,92
2018-09-07T04:52:14.169Z,88
2018-09-07T04:53:16.878Z,88
2018-09-07T04:54:18.979Z,84
2018-09-07T04:55:21.071Z,84
2018-09-07T04:56:23.503Z,88
2018-09-07T04:57:25.595Z,88
2018-09-07T04:58:27.690Z,92
2018-09-07T04:59:29.805Z,96
2018-09-07T05:00:32.275Z,100
2018-09-07T05:01:34.376Z,100
2018-09-07T05:02:36.480Z,108
2018-09-07T05:03:38.591Z,112
2018-09-07T05:04:40.675Z,112
2018-09-07T05:05:42.787Z,124
2018-09-07T05:06:45.276Z,140
2018-09-07T05:07:47.352Z,168
2018-09-07T05:08:49.463Z,200
2018-09-07T05:09:51.558Z,236
2018-09-07T05:10:53.659Z,256
2018-09-07T05:11:55.756Z,264
2018-09-07T05:12:58.255Z,280
2018-09-07T05:14:00.346Z,324
2018-09-07T05:15:02.450Z,396
2018-09-07T05:16:04.555Z,484
2018-09-07T05:17:06.643Z,568
2018-09-07T05:18:08.753Z,612
2018-09-07T05:19:11.143Z,632
2018-09-07T05:20:13.643Z,628
2018-09-07T05:21:15.743Z,632
2018-09-07T05:22:18.439Z,672
2018-09-07T05:23:20.535Z,720
2018-09-07T05:24:22.624Z,756
2018-09-07T05:25:24.723Z,752
2018-09-07T05:26:27.226Z,728
2018-09-07T05:27:29.320Z,708
2018-09-07T05:28:31.412Z,704
2018-09-07T05:29:33.529Z,736
2018-09-07T05:30:35.629Z,792
2018-09-07T05:31:37.821Z,896
2018-09-07T05:32:40.350Z,1016
2018-09-07T05:33:42.435Z,1096
2018-09-07T05:34:44.539Z,1200
2018-09-07T05:35:46.956Z,1332
2018-09-07T05:36:49.451Z,1508
2018-09-07T05:37:51.539Z,1776
2018-09-07T05:38:54.041Z,2156
2018-09-07T05:39:56.143Z,2624
2018-09-07T05:40:58.233Z,3132
2018-09-07T05:42:00.345Z,3668
2018-09-07T05:43:02.433Z,4092
2018-09-07T05:44:04.536Z,4112
2018-09-07T05:45:06.634Z,3796
2018-09-07T05:46:08.746Z,3416
2018-09-07T05:47:10.835Z,3292
2018-09-07T05:48:12.938Z,3672
2018-09-07T05:49:16.037Z,4000
2018-09-07T05:50:18.123Z,4260
2018-09-07T05:51:20.224Z,4504
2018-09-07T05:52:22.323Z,4556
2018-09-07T05:53:24.412Z,4404
2018-09-07T05:54:26.511Z,4144
2018-09-07T05:55:28.618Z,3828
2018-09-07T05:56:30.714Z,3540
2018-09-07T05:57:33.125Z,3436
2018-09-07T05:58:35.226Z,3532
2018-09-07T05:59:37.765Z,3768
2018-09-07T06:00:40.215Z,3784
2018-09-07T06:01:42.324Z,3568
2018-09-07T06:02:44.433Z,3360
2018-09-07T06:03:46.518Z,3260
2018-09-07T06:04:49.015Z,3260
2018-09-07T06:05:51.107Z,3356
2018-09-07T06:06:53.221Z,3372
2018-09-07T06:07:55.315Z,3176
2018-09-07T06:08:57.416Z,3052
2018-09-07T06:09:59.508Z,3052
2018-09-07T06:11:01.620Z,3140
2018-09-07T06:12:03.713Z,2920
2018-09-07T06:13:06.203Z,2652
2018-09-07T06:14:08.307Z,2748
2018-09-07T06:15:10.390Z,2736
2018-09-07T06:16:12.505Z,3196
2018-09-07T06:17:14.603Z,3444
2018-09-07T06:18:16.711Z,3528
2018-09-07T06:19:19.186Z,3632
2018-09-07T06:20:21.588Z,4152
2018-09-07T06:21:23.682Z,4372
2018-09-07T06:22:25.774Z,4488
2018-09-07T06:23:27.887Z,4608
2018-09-07T06:24:29.988Z,4612
2018-09-07T06:25:32.077Z,4264
2018-09-07T06:26:34.179Z,3852
2018-09-07T06:27:36.286Z,3684
2018-09-07T06:28:38.370Z,3360
2018-09-07T06:29:40.476Z,2784
2018-09-07T06:30:42.567Z,2636
2018-09-07T06:31:44.666Z,2608
2018-09-07T06:32:47.299Z,2648
2018-09-07T06:33:49.848Z,2844
2018-09-07T06:34:51.953Z,3176
2018-09-07T06:35:54.427Z,3128
2018-09-07T06:36:56.941Z,3092
2018-09-07T06:37:58.941Z,3256
2018-09-07T06:39:01.117Z,3172
2018-09-07T06:40:03.146Z,3020
2018-09-07T06:41:05.240Z,2844
2018-09-07T06:42:07.341Z,2996
2018-09-07T06:43:09.432Z,3316
2018-09-07T06:44:11.957Z,3860
2018-09-07T06:45:14.025Z,4352
2018-09-07T06:46:16.130Z,4208
2018-09-07T06:47:18.252Z,4020
2018-09-07T06:48:20.326Z,3508
2018-09-07T06:49:22.824Z,3248
2018-09-07T06:50:24.920Z,3324
2018-09-07T06:51:27.023Z,3836
2018-09-07T06:52:29.110Z,4056
2018-09-07T06:53:31.242Z,4072
2018-09-07T06:54:33.336Z,4676
2018-09-07T06:55:35.437Z,4636
2018-09-07T06:56:37.549Z,5156
2018-09-07T06:57:39.954Z,5080
2018-09-07T06:58:42.087Z,5352
2018-09-07T06:59:45.903Z,5576
2018-09-07T07:00:49.222Z,5572
2018-09-07T07:01:53.778Z,5392
2018-09-07T07:02:57.956Z,5372
2018-09-07T07:04:00.414Z,5196
2018-09-07T07:05:02.843Z,5104
2018-09-07T07:06:06.076Z,5320
2018-09-07T07:07:09.150Z,5892
2018-09-07T07:08:13.611Z,6452
2018-09-07T07:09:21.900Z,7596
2018-09-07T07:10:24.808Z,8804
2018-09-07T07:11:27.772Z,9828
2018-09-07T07:12:30.399Z,10376
2018-09-07T07:13:33.003Z,10708
2018-09-07T07:14:37.917Z,10752
2018-09-07T07:15:40.318Z,10340
2018-09-07T07:16:42.884Z,10568
2018-09-07T07:17:45.908Z,10176
2018-09-07T07:18:48.930Z,10080
2018-09-07T07:19:53.199Z,9824
2018-09-07T07:20:56.542Z,9096
2018-09-07T07:21:59.840Z,7864
2018-09-07T07:23:03.674Z,6204
2018-09-07T07:24:07.008Z,7240
2018-09-07T07:25:09.966Z,9048
2018-09-07T07:26:12.897Z,8448
2018-09-07T07:27:15.847Z,8076
2018-09-07T07:28:19.204Z,8360
2018-09-07T07:29:22.332Z,9232
2018-09-07T07:30:26.137Z,9960
2018-09-07T07:31:28.809Z,10048
2018-09-07T07:32:31.622Z,9652
2018-09-07T07:33:35.222Z,9256
2018-09-07T07:34:37.793Z,8968
2018-09-07T07:35:41.573Z,8272
2018-09-07T07:36:45.777Z,7120
2018-09-07T07:37:48.642Z,7080
2018-09-07T07:38:51.264Z,7612
2018-09-07T07:39:54.467Z,8792
2018-09-07T07:40:58.144Z,10740
2018-09-07T07:42:01.067Z,12852
2018-09-07T07:43:03.904Z,13716
2018-09-07T07:44:08.338Z,14828
2018-09-07T07:45:11.336Z,16004
2018-09-07T07:46:13.975Z,15624
2018-09-07T07:47:18.138Z,13672
2018-09-07T07:48:21.140Z,9784
2018-09-07T07:49:23.716Z,9148
2018-09-07T07:50:27.225Z,14288
2018-09-07T07:51:30.901Z,15852
2018-09-07T07:52:34.167Z,15240
2018-09-07T07:53:39.180Z,13456
2018-09-07T07:54:42.363Z,12696
2018-09-07T07:55:45.540Z,12004
2018-09-07T07:56:49.172Z,11820
2018-09-07T07:57:52.112Z,12188
2018-09-07T07:58:55.160Z,13960
2018-09-07T08:00:00.286Z,16148
2018-09-07T08:01:03.077Z,17320
2018-09-07T08:02:05.917Z,17140
2018-09-07T08:03:08.887Z,19072
2018-09-07T08:04:13.380Z,19936
2018-09-07T08:05:16.605Z,17948
2018-09-07T08:06:20.666Z,16732
2018-09-07T08:07:24.705Z,18880
2018-09-07T08:08:29.614Z,24128
2018-09-07T08:09:34.249Z,19328
2018-09-07T08:10:37.500Z,16044
2018-09-07T08:11:41.257Z,18912
2018-09-07T08:12:45.297Z,22176
2018-09-07T08:13:48.935Z,19552
2018-09-07T08:14:53.451Z,22432
2018-09-07T08:15:56.895Z,20352
2018-09-07T08:17:00.670Z,23968
2018-09-07T08:18:03.725Z,20640
2018-09-07T08:19:07.735Z,23264
2018-09-07T08:20:10.547Z,12240
2018-09-07T08:21:13.108Z,10252
2018-09-07T08:22:16.217Z,15624
2018-09-07T08:23:19.269Z,17548
2018-09-07T08:24:22.623Z,12564
2018-09-07T08:25:26.381Z,12168
2018-09-07T08:26:30.044Z,11712
2018-09-07T08:27:34.627Z,11336
2018-09-07T08:28:38.429Z,10780
2018-09-07T08:29:42.347Z,9904
2018-09-07T08:30:47.101Z,8336
2018-09-07T08:31:50.444Z,9208
2018-09-07T08:32:54.953Z,10104
2018-09-07T08:33:59.040Z,9072
2018-09-07T08:35:03.684Z,10128
2018-09-07T08:36:05.942Z,10116
2018-09-07T08:37:08.271Z,8168
2018-09-07T08:38:11.182Z,7404
2018-09-07T08:39:13.899Z,5716
2018-09-07T08:40:16.145Z,5172
2018-09-07T08:41:18.312Z,5556
2018-09-07T08:42:20.343Z,6416
2018-09-07T08:43:22.385Z,9916
2018-09-07T08:44:24.420Z,11808
2018-09-07T08:45:26.463Z,12876
2018-09-07T08:46:28.506Z,13508
2018-09-07T08:47:30.533Z,13928
2018-09-07T08:48:32.583Z,16096
2018-09-07T08:49:34.631Z,19712
2018-09-07T08:50:36.668Z,22976
2018-09-07T08:51:38.716Z,23872
2018-09-07T08:52:40.749Z,17504
2018-09-07T08:53:42.783Z,17640
2018-09-07T08:54:44.950Z,14172
2018-09-07T08:55:47.438Z,12868
2018-09-07T08:56:49.454Z,11212
2018-09-07T08:57:51.494Z,10492
2018-09-07T08:58:53.544Z,10604
2018-09-07T08:59:55.576Z,10108
2018-09-07T09:00:57.629Z,9064
2018-09-07T09:01:59.956Z,7540
2018-09-07T09:03:01.995Z,9424
2018-09-07T09:04:04.047Z,14736
2018-09-07T09:05:06.079Z,16928
2018-09-07T09:06:08.124Z,19840
2018-09-07T09:07:10.449Z,21152
2018-09-07T09:08:12.492Z,21152
2018-09-07T09:09:14.529Z,21888
2018-09-07T09:10:16.571Z,22496
2018-09-07T09:11:18.598Z,22656
2018-09-07T09:12:20.651Z,22848
2018-09-07T09:13:23.069Z,22976
2018-09-07T09:14:25.104Z,22528
2018-09-07T09:15:27.132Z,24192
2018-09-07T09:16:29.174Z,28576
2018-09-07T09:17:31.215Z,39904
2018-09-07T09:18:33.257Z,49440
2018-09-07T09:19:35.583Z,60960
2018-09-07T09:20:37.611Z,62144
2018-09-07T09:21:40.245Z,67616
2018-09-07T09:22:42.566Z,66272
2018-09-07T09:23:44.653Z,71104
2018-09-07T09:24:47.698Z,71296
2018-09-07T09:25:49.737Z,76608
2018-09-07T09:26:51.770Z,73952
2018-09-07T09:27:53.829Z,79200
2018-09-07T09:28:56.248Z,27328
2018-09-07T09:29:58.284Z,28320
2018-09-07T09:31:00.316Z,85696
2018-09-07T09:32:02.364Z,67360
2018-09-07T09:33:04.402Z,80096
2018-09-07T09:34:06.442Z,77664
2018-09-07T09:35:08.491Z,29120
2018-09-07T09:36:10.802Z,30336
2018-09-07T09:37:13.238Z,77056
2018-09-07T09:38:15.271Z,84672
2018-09-07T09:39:17.320Z,85792
2018-09-07T09:40:19.350Z,88480
2018-09-07T09:41:21.396Z,88896
2018-09-07T09:42:23.458Z,87328
2018-09-07T09:43:25.484Z,77920
2018-09-07T09:44:27.550Z,42944
2018-09-07T09:45:29.579Z,40096
2018-09-07T09:46:32.025Z,36672
2018-09-07T09:47:34.070Z,74848
2018-09-07T09:48:36.119Z,75872
2018-09-07T09:49:38.155Z,79072
2018-09-07T09:50:40.488Z,77728
2018-09-07T09:51:42.911Z,80960
2018-09-07T09:52:45.022Z,83488
2018-09-07T09:53:47.007Z,88672
2018-09-07T09:54:49.044Z,61824
2018-09-07T09:55:51.084Z,78624
2018-09-07T09:56:53.155Z,27392
2018-09-07T09:57:55.562Z,27680
2018-09-07T09:58:57.609Z,30528
2018-09-07T09:59:59.670Z,35296
2018-09-07T10:01:01.998Z,27712
2018-09-07T10:02:04.649Z,26112
2018-09-07T10:03:07.087Z,27264
2018-09-07T10:04:09.132Z,38784
2018-09-07T10:05:11.168Z,39008
2018-09-07T10:06:13.218Z,96480
2018-09-07T10:07:15.258Z,100032
2018-09-07T10:08:17.297Z,51520
2018-09-07T10:09:19.738Z,100160
2018-09-07T10:10:21.771Z,91648
2018-09-07T10:11:23.821Z,17764
2018-09-07T10:12:25.941Z,9552
2018-09-07T10:13:28.859Z,7584
2018-09-07T10:14:30.910Z,7396
2018-09-07T10:15:33.340Z,9760
2018-09-07T10:16:35.416Z,12956
2018-09-07T10:17:37.485Z,14188
2018-09-07T10:18:39.589Z,14156
2018-09-07T10:19:42.323Z,17060
2018-09-07T10:20:45.720Z,28800
2018-09-07T10:21:48.423Z,51584
2018-09-07T10:22:51.384Z,56896
2018-09-07T10:23:53.733Z,48032
2018-09-07T10:24:56.981Z,34400
2018-09-07T10:25:59.897Z,26240
2018-09-07T10:27:02.997Z,22656
2018-09-07T10:28:06.705Z,23712
2018-09-07T10:29:11.038Z,23904
2018-09-07T10:30:15.849Z,27744
2018-09-07T10:31:20.467Z,82880
2018-09-07T10:32:24.936Z,36672
2018-09-07T10:33:30.032Z,23296
2018-09-07T10:34:34.511Z,21440
2018-09-07T10:35:37.236Z,26048
2018-09-07T10:36:42.350Z,56320
2018-09-07T10:37:47.173Z,40992
2018-09-07T10:38:51.250Z,90240
2018-09-07T10:39:56.159Z,33408
2018-09-07T10:40:59.763Z,91040
2018-09-07T10:42:02.790Z,75200
2018-09-07T10:43:05.900Z,28000
2018-09-07T10:44:10.258Z,59168
2018-09-07T10:45:15.034Z,104064
2018-09-07T10:46:18.370Z,52960
2018-09-07T10:47:24.157Z,30336
2018-09-07T10:48:28.708Z,39424
2018-09-07T10:49:33.160Z,27168
2018-09-07T10:50:36.640Z,32640
2018-09-07T10:51:41.533Z,33056
2018-09-07T10:52:44.165Z,38272
2018-09-07T10:53:49.500Z,42656
2018-09-07T10:54:55.271Z,92768
2018-09-07T10:55:58.000Z,97824
2018-09-07T10:57:02.210Z,94240
2018-09-07T10:58:06.882Z,92384
2018-09-07T10:59:12.269Z,63360
2018-09-07T11:00:16.281Z,92352
2018-09-07T11:01:19.136Z,53440
2018-09-07T11:02:21.656Z,25664
2018-09-07T11:03:25.307Z,20672
2018-09-07T11:04:28.787Z,19456
2018-09-07T11:05:32.144Z,54208
2018-09-07T11:06:34.677Z,102912
2018-09-07T11:07:37.692Z,96480
2018-09-07T11:08:42.450Z,93792
2018-09-07T11:09:45.966Z,96256
2018-09-07T11:10:49.659Z,99616
2018-09-07T11:11:52.436Z,97504
2018-09-07T11:12:55.509Z,96896
2018-09-07T11:13:59.259Z,96992
2018-09-07T11:15:03.806Z,93920
2018-09-07T11:16:06.325Z,39616
2018-09-07T11:17:10.462Z,57600
2018-09-07T11:18:14.499Z,85664
2018-09-07T11:19:17.434Z,59968
2018-09-07T11:20:21.373Z,92704
2018-09-07T11:21:24.489Z,89504
2018-09-07T11:22:27.371Z,94272
2018-09-07T11:23:31.167Z,102496
2018-09-07T11:24:35.850Z,103936
2018-09-07T11:25:39.451Z,107840
2018-09-07T11:26:42.418Z,88224
2018-09-07T11:27:45.968Z,95456
2018-09-07T11:28:49.839Z,109344
2018-09-07T11:29:55.112Z,48928
2018-09-07T11:30:58.524Z,30336
2018-09-07T11:32:02.029Z,28032
2018-09-07T11:33:05.372Z,29408
2018-09-07T11:34:08.049Z,73312
2018-09-07T11:35:10.841Z,108448
2018-09-07T11:36:14.901Z,38720
2018-09-07T11:37:17.671Z,32032
2018-09-07T11:38:21.212Z,26816
2018-09-07T11:39:24.515Z,31488
2018-09-07T11:40:28.071Z,93440
2018-09-07T11:41:32.193Z,97376
2018-09-07T11:42:35.039Z,46432
2018-09-07T11:43:37.081Z,23840
2018-09-07T11:44:39.416Z,19424
2018-09-07T11:45:41.455Z,18976
2018-09-07T11:46:44.181Z,19680
2018-09-07T11:47:46.222Z,28512
2018-09-07T11:48:48.278Z,26048
2018-09-07T11:49:50.331Z,26400
2018-09-07T11:50:52.369Z,23936
2018-09-07T11:51:54.429Z,21696
2018-09-07T11:52:56.518Z,20448
2018-09-07T11:53:58.570Z,19616
2018-09-07T11:55:00.615Z,22720
2018-09-07T11:56:03.043Z,33184
2018-09-07T11:57:05.087Z,43968
2018-09-07T11:58:07.505Z,56576
2018-09-07T11:59:09.476Z,96096
2018-09-07T12:00:11.510Z,40960
2018-09-07T12:01:13.863Z,40384
2018-09-07T12:02:16.676Z,39232
2018-09-07T12:03:19.105Z,111040
2018-09-07T12:04:21.235Z,90304
2018-09-07T12:05:23.190Z,32768
2018-09-07T12:06:25.523Z,28256
2018-09-07T12:07:27.571Z,26080
2018-09-07T12:08:29.627Z,23840
2018-09-07T12:09:32.050Z,24416
2018-09-07T12:10:34.114Z,92288
2018-09-07T12:11:36.144Z,36960
2018-09-07T12:12:38.297Z,38944
2018-09-07T12:13:40.239Z,49216
2018-09-07T12:14:42.288Z,31968
2018-09-07T12:15:44.326Z,100992
2018-09-07T12:16:46.666Z,55872
2018-09-07T12:17:49.011Z,113568
2018-09-07T12:18:51.059Z,110144
2018-09-07T12:19:53.390Z,58464
2018-09-07T12:20:55.818Z,90656
2018-09-07T12:21:58.444Z,28160
2018-09-07T12:23:00.498Z,22560
2018-09-07T12:24:02.538Z,25888
2018-09-07T12:25:04.595Z,46656
2018-09-07T12:26:07.022Z,94240
2018-09-07T12:27:09.069Z,84576
2018-09-07T12:28:11.161Z,87232
2018-09-07T12:29:13.924Z,92960
2018-09-07T12:30:15.965Z,48736
2018-09-07T12:31:18.004Z,88768
2018-09-07T12:32:20.065Z,25440
2018-09-07T12:33:22.096Z,27872
2018-09-07T12:34:24.150Z,74464
2018-09-07T12:35:26.483Z,91360
2018-09-07T12:36:28.532Z,25920
2018-09-07T12:37:30.575Z,96800
2018-09-07T12:38:32.621Z,76064
2018-09-07T12:39:34.659Z,114336
2018-09-07T12:40:36.697Z,109088
2018-09-07T12:41:38.751Z,104672
2018-09-07T12:42:41.175Z,78048
2018-09-07T12:43:43.494Z,90272
2018-09-07T12:44:45.556Z,106624
2018-09-07T12:45:47.876Z,91712
2018-09-07T12:46:49.933Z,39168
2018-09-07T12:47:51.979Z,44096
2018-09-07T12:48:54.024Z,56640
2018-09-07T12:49:56.082Z,65408
2018-09-07T12:50:58.419Z,77792
2018-09-07T12:52:00.474Z,83680
2018-09-07T12:53:02.521Z,26720
2018-09-07T12:54:04.574Z,25824
2018-09-07T12:55:06.618Z,26464
2018-09-07T12:56:08.706Z,31776
2018-09-07T12:57:11.161Z,94912
2018-09-07T12:58:13.517Z,91328
2018-09-07T12:59:15.557Z,25440
2018-09-07T13:00:17.628Z,23424
2018-09-07T13:01:19.667Z,26272
2018-09-07T13:02:21.768Z,33472
2018-09-07T13:03:24.207Z,48128
2018-09-07T13:04:26.554Z,77760
2018-09-07T13:05:28.607Z,67552
2018-09-07T13:06:30.637Z,40192
2018-09-07T13:07:32.694Z,59232
2018-09-07T13:08:35.030Z,78336
2018-09-07T13:09:37.680Z,71008
2018-09-07T13:10:39.715Z,49920
2018-09-07T13:11:41.757Z,25888
2018-09-07T13:12:43.820Z,74464
2018-09-07T13:13:46.256Z,91424
2018-09-07T13:14:48.314Z,89376
2018-09-07T13:15:50.357Z,84800
2018-09-07T13:16:52.396Z,27648
2018-09-07T13:17:54.452Z,69152
2018-09-07T13:18:56.772Z,74272
2018-09-07T13:19:58.833Z,67872
2018-09-07T13:21:00.870Z,41664
2018-09-07T13:22:03.205Z,54944
2018-09-07T13:23:05.257Z,34816
2018-09-07T13:24:07.322Z,77440
2018-09-07T13:25:09.656Z,53472
2018-09-07T13:26:11.688Z,23168
2018-09-07T13:27:14.133Z,23104
2018-09-07T13:28:16.175Z,22240
2018-09-07T13:29:18.218Z,24704
2018-09-07T13:30:20.286Z,26752
2018-09-07T13:31:22.707Z,31776
2018-09-07T13:32:24.757Z,26720
2018-09-07T13:33:27.081Z,27360
2018-09-07T13:34:29.148Z,22880
2018-09-07T13:35:31.233Z,27328
2018-09-07T13:36:33.231Z,28992
2018-09-07T13:37:35.286Z,30368
2018-09-07T13:38:37.321Z,21696
2018-09-07T13:39:39.387Z,20160
2018-09-07T13:40:41.719Z,20416
2018-09-07T13:41:43.764Z,19424
2018-09-07T13:42:45.807Z,20864
2018-09-07T13:43:47.861Z,26048
2018-09-07T13:44:49.908Z,24640
2018-09-07T13:45:51.964Z,28480
2018-09-07T13:46:54.030Z,51392
2018-09-07T13:47:56.060Z,28992
2018-09-07T13:48:58.709Z,24768
2018-09-07T13:50:00.875Z,24544
2018-09-07T13:51:05.119Z,23264
2018-09-07T13:52:07.168Z,26080
2018-09-07T13:53:09.798Z,25472
2018-09-07T13:54:11.843Z,25472
2018-09-07T13:55:13.897Z,26560
2018-09-07T13:56:15.949Z,24704
2018-09-07T13:57:17.987Z,22816
2018-09-07T13:58:20.039Z,21728
2018-09-07T13:59:22.494Z,21952
2018-09-07T14:00:24.545Z,24000
2018-09-07T14:01:26.911Z,28224
2018-09-07T14:02:29.388Z,27168
2018-09-07T14:03:31.712Z,41248
2018-09-07T14:04:33.769Z,39552
2018-09-07T14:05:35.813Z,43936
2018-09-07T14:06:37.875Z,58624
2018-09-07T14:07:39.915Z,54976
2018-09-07T14:08:41.976Z,42656